Terminal Aerodrome Forecast
Issued by NWS Medford, OR

Home | Current Version | Previous Version | Text Only | Print | Product List | Glossary On
Versions: 1 2 3 4 5 6 7 8 9 10 11 12
000
FTUS46 KMFR 040520
TAFMFR
TAF
KMFR 040520Z 0406/0506 VRB03KT P6SM SCT250
     FM042200 32010KT P6SM SCT100 SCT250
     FM050400 VRB03KT P6SM SCT250=

USA.gov is the U.S. government's official web portal to all federal, state and local government web resources and services.